METAR Data
IDs: Format: Raw Decoded Include TAF

Data at: 0508 UTC 18 Jan 2022

KBEH 180500Z AUTO 28011KT 10SM OVC029 M01/M07 A2992 RMK AO2 T10111067 $
KBEH 180453Z AUTO 28010KT 10SM OVC030 M01/M07 A2992 RMK AO2 SLP139 T10111067 410061061 $
KBEH 180408Z AUTO 27011KT 10SM OVC030 M01/M06 A2991 RMK AO2 T10111061 $
KBEH 180353Z AUTO 27009KT 10SM OVC029 M01/M07 A2991 RMK AO2 SLP136 T10111067 $
KBEH 180253Z AUTO 29010G15KT 10SM BKN028 OVC034 M01/M07 A2992 RMK AO2 SLP138 T10111072 51017 $
KBEH 180223Z AUTO 30009G17KT 10SM OVC028 M01/M07 A2991 RMK AO2 T10111072 $
KBEH 180216Z AUTO 29012KT 10SM OVC030 M02/M07 A2991 RMK AO2 T10171067 $
KBEH 180153Z AUTO 27009G22KT 10SM OVC026 M02/M07 A2990 RMK AO2 SLP133 T10171067 $
KBEH 180053Z AUTO 29010KT 10SM OVC023 M02/M07 A2989 RMK AO2 SLP130 T10171067 $
KBEH 172353Z AUTO 30012G20KT 10SM OVC024 M01/M07 A2987 RMK AO2 SLP121 60000 T10111067 11006 21017 53022 $
KBEH 172253Z AUTO 31007G16KT 10SM OVC023 M01/M06 A2984 RMK AO2 SLP112 T10111061 $
KBEH 172153Z AUTO 30011G16KT 10SM OVC020 M01/M06 A2981 RMK AO2 SLP101 T10111056 $
KBEH 172053Z AUTO 32010G20KT 10SM OVC021 M01/M06 A2980 RMK AO2 SNB21E31 SLP099 P0000 60000 T10111056 53019 $
KBEH 171953Z AUTO VRB06G21KT 10SM OVC020 M01/M06 A2978 RMK AO2 SNB10E21 SLP090 P0000 T10111056
KBEH 171853Z AUTO 32012G22KT 10SM OVC018 M01/M05 A2974 RMK AO2 SNB24E33 SLP079 P0000 T10061050
KBEH 171753Z AUTO 32010G18KT 10SM OVC018 M01/M04 A2974 RMK AO2 SLP079 60000 T10061044 11006 21017 50011
KBEH 171653Z AUTO 33010G20KT 10SM OVC018 M01/M04 A2975 RMK AO2 SNB32E41 SLP082 P0000 T10061044
KBEH 171553Z AUTO 31009G20KT 10SM OVC019 M01/M04 A2974 RMK AO2 SLP078 T10061044
KBEH 171453Z AUTO 8SM OVC015 M01/M04 A2971 RMK AO2 SLP069 T10111044 51013
KBEH 171353Z AUTO 35007G24KT 10SM OVC015 M01/M05 A2970 RMK AO2 SLP064 T10111050
KBEH 171348Z AUTO 32010G24KT 10SM OVC015 M01/M05 A2969 RMK AO2
KBEH 171253Z AUTO 33010G21KT 300V010 10SM OVC013 M01/M04 A2967 RMK AO2 SLP056 T10111044
KBEH 171153Z AUTO VRB06KT 10SM OVC011 M02/M04 A2965 RMK AO2 SLP048 T10171044 11006 21033 53008
KBEH 171053Z AUTO 33008G18KT 300V010 8SM OVC011 M02/M04 A2963 RMK AO2 SLP042 T10171044
KBEH 171032Z AUTO 33008G19KT 8SM OVC013 M02/M04 A2963 RMK AO2 T10171044
KBEH 170953Z AUTO 32007G16KT 10SM OVC018 M01/M06 A2962 RMK AO2 SLP039 T10111056
KBEH 170853Z AUTO 32011G22KT 10SM OVC015 M01/M04 A2962 RMK AO2 SLP039 T10111044 55009
KBEH 170753Z AUTO 32009G16KT 300V360 10SM OVC016 M01/M04 A2962 RMK AO2 SLP038 T10061044
KBEH 170653Z AUTO 10SM OVC023 M01/M06 A2963 RMK AO2 SLP041 T10061056
KBEH 170615Z AUTO 33005KT 10SM BKN024 M02/M07 A2964 RMK AO2 T10171067
KBEH 170553Z AUTO VRB03KT 10SM SCT025 M03/M08 A2965 RMK AO2 SLP049 T10331078 11033 21061 56026
KBEH 170453Z AUTO 00000KT 9SM SCT090 M05/M09 A2967 RMK AO2 SLP056 T10501089 410171144
KBEH 170353Z AUTO 00000KT 10SM OVC090 M04/M08 A2970 RMK AO2 SLP067 T10441083
KBEH 170253Z AUTO 00000KT 10SM BKN075 OVC090 M04/M08 A2973 RMK AO2 SLP077 T10441083 55015
KBEH 170153Z AUTO 00000KT 10SM FEW120 M06/M09 A2973 RMK AO2 SLP077 T10561094
KBEH 170053Z AUTO 00000KT 10SM CLR M05/M10 A2975 RMK AO2 SLP087 T10501100
KBEH 162353Z AUTO 00000KT 10SM CLR M04/M11 A2977 RMK AO2 SLP094 T10391106 11017 21039 55006
KBEH 162253Z AUTO 00000KT 10SM CLR M03/M11 A2977 RMK AO2 SLP093 T10331106
KBEH 162153Z AUTO 00000KT 10SM CLR M03/M11 A2978 RMK AO2 SLP095 T10281111
KBEH 162053Z AUTO 00000KT 10SM CLR M02/M11 A2979 RMK AO2 SLP099 T10171111 56038
KBEH 161953Z AUTO 26004KT 10SM CLR M02/M12 A2983 RMK AO2 SLP111 T10221122
KBEH 161853Z AUTO VRB03KT 10SM CLR M03/M13 A2987 RMK AO2 SLP126 T10281128
KBEH 161753Z AUTO 00000KT 10SM CLR M04/M13 A2991 RMK AO2 SLP138 T10391133 11039 21144 58037